sensor_id;sensor_type;location;lat;lon;timestamp;pressure;altitude;pressure_sealevel;temperature;humidity
11712;BME280;5912;51.034;6.984;2023-05-28T00:00:04;56328.28;;;-142.13;64.12
11712;BME280;5912;51.034;6.984;2023-05-28T00:02:31;56312.25;;;-142.13;64.49
11712;BME280;5912;51.034;6.984;2023-05-28T00:04:57;56346.31;;;-142.13;64.56
11712;BME280;5912;51.034;6.984;2023-05-28T00:07:22;56336.28;;;-142.13;64.66
11712;BME280;5912;51.034;6.984;2023-05-28T00:09:48;56300.25;;;-142.13;64.71
11712;BME280;5912;51.034;6.984;2023-05-28T00:12:14;56332.28;;;-142.13;65.10
11712;BME280;5912;51.034;6.984;2023-05-28T00:14:39;56330.28;;;-142.13;65.32
11712;BME280;5912;51.034;6.984;2023-05-28T00:17:04;56336.28;;;-142.13;65.40
11712;BME280;5912;51.034;6.984;2023-05-28T00:19:30;56360.34;;;-142.13;65.54
11712;BME280;5912;51.034;6.984;2023-05-28T00:21:55;56334.28;;;-142.13;65.56
11712;BME280;5912;51.034;6.984;2023-05-28T00:24:20;56286.22;;;-142.13;65.74
11712;BME280;5912;51.034;6.984;2023-05-28T00:26:46;56336.28;;;-142.13;65.73
11712;BME280;5912;51.034;6.984;2023-05-28T00:29:11;56330.28;;;-142.13;65.81
11712;BME280;5912;51.034;6.984;2023-05-28T00:31:38;56340.31;;;-142.13;65.96
11712;BME280;5912;51.034;6.984;2023-05-28T00:34:03;56326.28;;;-142.13;66.28
11712;BME280;5912;51.034;6.984;2023-05-28T00:36:29;56340.31;;;-142.13;66.09
11712;BME280;5912;51.034;6.984;2023-05-28T00:38:54;56346.31;;;-142.13;66.36
11712;BME280;5912;51.034;6.984;2023-05-28T00:41:20;56310.25;;;-142.13;66.56
11712;BME280;5912;51.034;6.984;2023-05-28T00:43:49;56338.31;;;-142.13;66.56
11712;BME280;5912;51.034;6.984;2023-05-28T00:46:17;56342.31;;;-142.13;66.44
11712;BME280;5912;51.034;6.984;2023-05-28T00:48:44;56320.28;;;-142.13;66.42
11712;BME280;5912;51.034;6.984;2023-05-28T00:51:11;56338.31;;;-142.13;66.48
11712;BME280;5912;51.034;6.984;2023-05-28T00:53:37;56330.28;;;-142.13;66.64
11712;BME280;5912;51.034;6.984;2023-05-28T00:56:03;56332.28;;;-142.13;66.64
11712;BME280;5912;51.034;6.984;2023-05-28T00:58:29;56354.31;;;-142.13;66.69
11712;BME280;5912;51.034;6.984;2023-05-28T01:00:55;56360.34;;;-142.13;66.91
11712;BME280;5912;51.034;6.984;2023-05-28T01:03:20;56342.31;;;-142.13;66.70
11712;BME280;5912;51.034;6.984;2023-05-28T01:05:46;56352.31;;;-142.13;66.68
11712;BME280;5912;51.034;6.984;2023-05-28T01:08:12;56334.28;;;-142.13;66.88
11712;BME280;5912;51.034;6.984;2023-05-28T01:10:37;56324.28;;;-142.13;66.64
11712;BME280;5912;51.034;6.984;2023-05-28T01:13:05;56356.31;;;-142.13;66.64
11712;BME280;5912;51.034;6.984;2023-05-28T01:15:32;56332.28;;;-142.13;66.67
11712;BME280;5912;51.034;6.984;2023-05-28T01:17:59;56370.34;;;-142.13;66.72
11712;BME280;5912;51.034;6.984;2023-05-28T01:20:29;56378.38;;;-142.13;66.78
11712;BME280;5912;51.034;6.984;2023-05-28T01:22:58;56322.28;;;-142.13;66.66
11712;BME280;5912;51.034;6.984;2023-05-28T01:25:25;56318.25;;;-142.13;66.64
11712;BME280;5912;51.034;6.984;2023-05-28T01:27:53;56314.25;;;-142.13;66.76
11712;BME280;5912;51.034;6.984;2023-05-28T01:30:18;56354.31;;;-142.13;66.76
11712;BME280;5912;51.034;6.984;2023-05-28T01:32:44;56332.28;;;-142.13;67.22
11712;BME280;5912;51.034;6.984;2023-05-28T01:35:10;56342.31;;;-142.13;66.54
11712;BME280;5912;51.034;6.984;2023-05-28T01:37:44;56356.31;;;-142.13;66.45
11712;BME280;5912;51.034;6.984;2023-05-28T01:40:12;56338.31;;;-142.13;66.26
11712;BME280;5912;51.034;6.984;2023-05-28T01:42:40;56348.31;;;-142.13;66.24
11712;BME280;5912;51.034;6.984;2023-05-28T01:45:06;56356.31;;;-142.13;66.23
11712;BME280;5912;51.034;6.984;2023-05-28T01:47:33;56350.31;;;-142.13;65.71
11712;BME280;5912;51.034;6.984;2023-05-28T01:49:58;56312.25;;;-142.13;66.05
11712;BME280;5912;51.034;6.984;2023-05-28T01:52:24;56344.31;;;-142.13;65.02
11712;BME280;5912;51.034;6.984;2023-05-28T01:54:49;56316.25;;;-142.13;64.70
11712;BME280;5912;51.034;6.984;2023-05-28T01:57:16;56334.28;;;-142.13;64.73
11712;BME280;5912;51.034;6.984;2023-05-28T01:59:41;56326.28;;;-142.13;65.01
11712;BME280;5912;51.034;6.984;2023-05-28T02:02:07;56356.31;;;-142.13;64.42
11712;BME280;5912;51.034;6.984;2023-05-28T02:04:33;56322.28;;;-142.13;64.41
11712;BME280;5912;51.034;6.984;2023-05-28T02:07:36;56348.31;;;-142.13;64.27
11712;BME280;5912;51.034;6.984;2023-05-28T02:10:01;56352.31;;;-142.13;64.33
11712;BME280;5912;51.034;6.984;2023-05-28T02:12:26;56384.38;;;-142.13;64.30
11712;BME280;5912;51.034;6.984;2023-05-28T02:14:52;56332.28;;;-142.13;64.33
11712;BME280;5912;51.034;6.984;2023-05-28T02:17:17;56338.31;;;-142.13;64.48
11712;BME280;5912;51.034;6.984;2023-05-28T02:19:44;56346.31;;;-142.13;64.89
11712;BME280;5912;51.034;6.984;2023-05-28T02:22:09;56342.31;;;-142.13;64.84
11712;BME280;5912;51.034;6.984;2023-05-28T02:24:38;56348.31;;;-142.13;65.06
11712;BME280;5912;51.034;6.984;2023-05-28T02:27:07;56382.38;;;-142.13;65.12
11712;BME280;5912;51.034;6.984;2023-05-28T02:29:33;56350.31;;;-142.13;65.15
11712;BME280;5912;51.034;6.984;2023-05-28T02:31:59;56374.34;;;-142.13;65.20
11712;BME280;5912;51.034;6.984;2023-05-28T02:34:25;56350.31;;;-142.13;64.83
11712;BME280;5912;51.034;6.984;2023-05-28T02:36:50;56318.25;;;-142.13;64.77
11712;BME280;5912;51.034;6.984;2023-05-28T02:39:18;56340.31;;;-142.13;64.79
11712;BME280;5912;51.034;6.984;2023-05-28T02:41:43;56364.34;;;-142.13;65.02
11712;BME280;5912;51.034;6.984;2023-05-28T02:44:08;56354.31;;;-142.13;66.14
11712;BME280;5912;51.034;6.984;2023-05-28T02:46:34;56338.31;;;-142.13;66.43
11712;BME280;5912;51.034;6.984;2023-05-28T02:48:59;56358.34;;;-142.13;66.28
11712;BME280;5912;51.034;6.984;2023-05-28T02:51:24;56368.34;;;-142.13;66.53
11712;BME280;5912;51.034;6.984;2023-05-28T02:53:49;56356.31;;;-142.13;66.77
11712;BME280;5912;51.034;6.984;2023-05-28T02:56:15;56390.38;;;-142.13;66.69
11712;BME280;5912;51.034;6.984;2023-05-28T02:58:40;56350.31;;;-142.13;66.99
11712;BME280;5912;51.034;6.984;2023-05-28T03:01:05;56384.38;;;-142.13;66.90
11712;BME280;5912;51.034;6.984;2023-05-28T03:03:32;56334.28;;;-142.13;66.88
11712;BME280;5912;51.034;6.984;2023-05-28T03:05:57;56378.38;;;-142.13;67.13
11712;BME280;5912;51.034;6.984;2023-05-28T03:08:22;56388.38;;;-142.13;66.57
11712;BME280;5912;51.034;6.984;2023-05-28T03:10:48;56366.34;;;-142.13;66.73
11712;BME280;5912;51.034;6.984;2023-05-28T03:13:13;56384.38;;;-142.13;66.57
11712;BME280;5912;51.034;6.984;2023-05-28T03:15:38;56382.38;;;-142.13;67.44
11712;BME280;5912;51.034;6.984;2023-05-28T03:18:03;56372.34;;;-142.13;67.66
11712;BME280;5912;51.034;6.984;2023-05-28T03:20:29;56392.38;;;-142.13;67.76
11712;BME280;5912;51.034;6.984;2023-05-28T03:22:56;56396.41;;;-142.13;68.08
11712;BME280;5912;51.034;6.984;2023-05-28T03:25:22;56360.34;;;-142.13;68.12
11712;BME280;5912;51.034;6.984;2023-05-28T03:27:48;56366.34;;;-142.13;68.27
11712;BME280;5912;51.034;6.984;2023-05-28T03:30:13;56344.31;;;-142.13;68.49
11712;BME280;5912;51.034;6.984;2023-05-28T03:32:39;56380.38;;;-142.13;68.42
11712;BME280;5912;51.034;6.984;2023-05-28T03:35:05;56384.38;;;-142.13;68.12
11712;BME280;5912;51.034;6.984;2023-05-28T03:37:31;56368.34;;;-142.13;68.21
11712;BME280;5912;51.034;6.984;2023-05-28T03:39:56;56384.38;;;-142.13;68.45
11712;BME280;5912;51.034;6.984;2023-05-28T03:42:21;56350.31;;;-142.13;68.37
11712;BME280;5912;51.034;6.984;2023-05-28T03:44:48;56360.34;;;-142.13;68.42
11712;BME280;5912;51.034;6.984;2023-05-28T03:47:13;56358.34;;;-142.13;68.30
11712;BME280;5912;51.034;6.984;2023-05-28T03:49:39;56392.38;;;-142.13;68.40
11712;BME280;5912;51.034;6.984;2023-05-28T03:52:04;56386.38;;;-142.13;68.11
11712;BME280;5912;51.034;6.984;2023-05-28T03:54:30;56388.38;;;-142.13;68.32
11712;BME280;5912;51.034;6.984;2023-05-28T03:57:33;56388.38;;;-142.13;68.10
11712;BME280;5912;51.034;6.984;2023-05-28T03:59:58;56400.41;;;-142.13;68.28
11712;BME280;5912;51.034;6.984;2023-05-28T04:02:23;56342.31;;;-142.13;68.14
11712;BME280;5912;51.034;6.984;2023-05-28T04:04:49;56364.34;;;-142.13;68.19
11712;BME280;5912;51.034;6.984;2023-05-28T04:07:14;56320.28;;;-142.13;67.89
11712;BME280;5912;51.034;6.984;2023-05-28T04:09:39;56378.38;;;-142.13;68.03
11712;BME280;5912;51.034;6.984;2023-05-28T04:12:06;56370.34;;;-142.13;67.76
11712;BME280;5912;51.034;6.984;2023-05-28T04:14:31;56356.31;;;-142.13;67.73
11712;BME280;5912;51.034;6.984;2023-05-28T04:17:15;56378.38;;;-142.13;67.58
11712;BME280;5912;51.034;6.984;2023-05-28T04:19:40;56356.31;;;-142.13;67.24
11712;BME280;5912;51.034;6.984;2023-05-28T04:22:06;56340.31;;;-142.13;67.03
11712;BME280;5912;51.034;6.984;2023-05-28T04:24:32;56346.31;;;-142.13;66.83
11712;BME280;5912;51.034;6.984;2023-05-28T04:26:57;56324.28;;;-142.13;66.88
11712;BME280;5912;51.034;6.984;2023-05-28T04:29:24;56334.28;;;-142.13;66.76
11712;BME280;5912;51.034;6.984;2023-05-28T04:31:50;56364.34;;;-142.13;66.73
11712;BME280;5912;51.034;6.984;2023-05-28T04:34:15;56334.28;;;-142.13;66.57
11712;BME280;5912;51.034;6.984;2023-05-28T04:36:44;56364.34;;;-142.13;66.73
11712;BME280;5912;51.034;6.984;2023-05-28T04:39:10;56340.31;;;-142.13;66.52
11712;BME280;5912;51.034;6.984;2023-05-28T04:41:35;56320.28;;;-142.13;66.36
11712;BME280;5912;51.034;6.984;2023-05-28T04:44:00;56366.34;;;-142.13;66.03
11712;BME280;5912;51.034;6.984;2023-05-28T04:46:29;56314.25;;;-142.13;65.96
11712;BME280;5912;51.034;6.984;2023-05-28T04:48:55;56346.31;;;-142.13;65.82
11712;BME280;5912;51.034;6.984;2023-05-28T04:51:21;56348.31;;;-142.13;65.71
11712;BME280;5912;51.034;6.984;2023-05-28T04:53:47;56312.25;;;-142.13;65.75
11712;BME280;5912;51.034;6.984;2023-05-28T04:56:12;56312.25;;;-142.13;65.41
11712;BME280;5912;51.034;6.984;2023-05-28T04:58:38;56362.34;;;-142.13;65.06
11712;BME280;5912;51.034;6.984;2023-05-28T05:01:04;56348.31;;;-142.13;64.78
11712;BME280;5912;51.034;6.984;2023-05-28T05:03:30;56348.31;;;-142.13;64.40
11712;BME280;5912;51.034;6.984;2023-05-28T05:05:57;56326.28;;;-142.13;64.33
11712;BME280;5912;51.034;6.984;2023-05-28T05:08:22;56316.25;;;-142.13;63.22
11712;BME280;5912;51.034;6.984;2023-05-28T05:10:47;56302.25;;;-142.13;63.10
11712;BME280;5912;51.034;6.984;2023-05-28T05:13:14;56300.25;;;-142.13;62.91
11712;BME280;5912;51.034;6.984;2023-05-28T05:15:39;56324.28;;;-142.13;63.05
11712;BME280;5912;51.034;6.984;2023-05-28T05:18:04;56306.25;;;-142.13;62.44
11712;BME280;5912;51.034;6.984;2023-05-28T05:20:29;56298.22;;;-142.13;62.19
11712;BME280;5912;51.034;6.984;2023-05-28T05:22:55;56300.25;;;-142.13;62.04
11712;BME280;5912;51.034;6.984;2023-05-28T05:25:22;56280.22;;;-142.13;61.67
11712;BME280;5912;51.034;6.984;2023-05-28T05:27:50;56272.19;;;-142.13;61.31
11712;BME280;5912;51.034;6.984;2023-05-28T05:30:16;56282.22;;;-142.13;60.93
11712;BME280;5912;51.034;6.984;2023-05-28T05:32:41;56272.19;;;-142.13;60.61
11712;BME280;5912;51.034;6.984;2023-05-28T05:35:31;56290.22;;;-142.13;60.51
11712;BME280;5912;51.034;6.984;2023-05-28T05:37:56;56248.16;;;-142.13;59.76
11712;BME280;5912;51.034;6.984;2023-05-28T05:40:22;56270.19;;;-142.13;59.04
11712;BME280;5912;51.034;6.984;2023-05-28T05:42:47;56288.22;;;-142.13;57.75
11712;BME280;5912;51.034;6.984;2023-05-28T05:45:12;56244.16;;;-142.13;57.67
11712;BME280;5912;51.034;6.984;2023-05-28T05:47:37;56274.19;;;-142.13;57.52
11712;BME280;5912;51.034;6.984;2023-05-28T05:50:04;56276.19;;;-142.13;57.17
11712;BME280;5912;51.034;6.984;2023-05-28T05:52:30;56264.19;;;-142.13;56.68
11712;BME280;5912;51.034;6.984;2023-05-28T05:54:55;56234.13;;;-142.13;55.62
11712;BME280;5912;51.034;6.984;2023-05-28T05:57:20;56230.13;;;-142.13;54.99
11712;BME280;5912;51.034;6.984;2023-05-28T05:59:46;56226.13;;;-142.13;54.51
11712;BME280;5912;51.034;6.984;2023-05-28T06:02:12;56218.09;;;-142.13;53.90
11712;BME280;5912;51.034;6.984;2023-05-28T06:04:37;56224.13;;;-142.13;53.11
11712;BME280;5912;51.034;6.984;2023-05-28T06:07:03;56228.13;;;-142.13;52.61
11712;BME280;5912;51.034;6.984;2023-05-28T06:09:30;56200.09;;;-142.13;51.57
11712;BME280;5912;51.034;6.984;2023-05-28T06:11:56;56224.13;;;-142.13;50.11
11712;BME280;5912;51.034;6.984;2023-05-28T06:14:22;56192.06;;;-142.13;48.83
11712;BME280;5912;51.034;6.984;2023-05-28T06:16:47;56178.03;;;-142.13;48.79
11712;BME280;5912;51.034;6.984;2023-05-28T06:19:13;56160.03;;;-142.13;47.32
11712;BME280;5912;51.034;6.984;2023-05-28T06:21:39;56192.06;;;-142.13;45.89
11712;BME280;5912;51.034;6.984;2023-05-28T06:24:04;56158.00;;;-142.13;45.37
11712;BME280;5912;51.034;6.984;2023-05-28T06:26:30;56127.97;;;-142.13;43.99
11712;BME280;5912;51.034;6.984;2023-05-28T06:28:56;56113.94;;;-142.13;41.58
11712;BME280;5912;51.034;6.984;2023-05-28T06:31:21;56091.91;;;-142.13;39.21
11712;BME280;5912;51.034;6.984;2023-05-28T06:33:48;56055.84;;;-142.13;37.55
11712;BME280;5912;51.034;6.984;2023-05-28T06:36:13;56033.81;;;-142.13;36.71
11712;BME280;5912;51.034;6.984;2023-05-28T06:38:38;55985.75;;;-142.13;34.97
11712;BME280;5912;51.034;6.984;2023-05-28T06:41:04;55973.75;;;-142.13;34.24
11712;BME280;5912;51.034;6.984;2023-05-28T06:43:29;55943.69;;;-142.13;33.50
11712;BME280;5912;51.034;6.984;2023-05-28T06:45:54;55919.66;;;-142.13;32.94
11712;BME280;5912;51.034;6.984;2023-05-28T06:48:20;55891.63;;;-142.13;32.32
11712;BME280;5912;51.034;6.984;2023-05-28T06:50:45;55887.59;;;-142.13;31.31
11712;BME280;5912;51.034;6.984;2023-05-28T06:53:10;55877.59;;;-142.13;30.84
11712;BME280;5912;51.034;6.984;2023-05-28T06:55:36;55855.56;;;-142.13;30.17
11712;BME280;5912;51.034;6.984;2023-05-28T06:58:01;55843.53;;;-142.13;30.00
11712;BME280;5912;51.034;6.984;2023-05-28T07:00:26;55823.50;;;-142.13;29.66
11712;BME280;5912;51.034;6.984;2023-05-28T07:02:51;55803.47;;;-142.13;28.63
11712;BME280;5912;51.034;6.984;2023-05-28T07:05:17;55787.47;;;-142.13;28.54
11712;BME280;5912;51.034;6.984;2023-05-28T07:07:42;55779.44;;;-142.13;28.28
11712;BME280;5912;51.034;6.984;2023-05-28T07:10:08;55763.44;;;-142.13;27.36
11712;BME280;5912;51.034;6.984;2023-05-28T07:12:35;55763.44;;;-142.13;27.21
11712;BME280;5912;51.034;6.984;2023-05-28T07:15:02;55801.47;;;-142.13;26.97
11712;BME280;5912;51.034;6.984;2023-05-28T07:17:27;55747.41;;;-142.13;26.68
11712;BME280;5912;51.034;6.984;2023-05-28T07:19:52;55745.41;;;-142.13;26.87
11712;BME280;5912;51.034;6.984;2023-05-28T07:22:18;55719.38;;;-142.13;26.69
11712;BME280;5912;51.034;6.984;2023-05-28T07:24:43;55735.38;;;-142.13;26.28
11712;BME280;5912;51.034;6.984;2023-05-28T07:27:08;55689.31;;;-142.13;26.12
11712;BME280;5912;51.034;6.984;2023-05-28T07:29:35;55691.31;;;-142.13;25.42
11712;BME280;5912;51.034;6.984;2023-05-28T07:32:01;55647.25;;;-142.13;25.54
11712;BME280;5912;51.034;6.984;2023-05-28T07:34:26;55679.31;;;-142.13;25.50
11712;BME280;5912;51.034;6.984;2023-05-28T07:37:10;55675.31;;;-142.13;24.55
11712;BME280;5912;51.034;6.984;2023-05-28T07:39:35;55649.25;;;-142.13;24.43
11712;BME280;5912;51.034;6.984;2023-05-28T07:42:01;55647.25;;;-142.13;24.43
11712;BME280;5912;51.034;6.984;2023-05-28T07:44:26;55633.25;;;-142.13;24.70
11712;BME280;5912;51.034;6.984;2023-05-28T07:46:52;55619.22;;;-142.13;24.35
11712;BME280;5912;51.034;6.984;2023-05-28T07:49:17;55615.22;;;-142.13;23.85
11712;BME280;5912;51.034;6.984;2023-05-28T07:51:42;55613.22;;;-142.13;23.83
11712;BME280;5912;51.034;6.984;2023-05-28T07:54:08;55593.19;;;-142.13;23.53
11712;BME280;5912;51.034;6.984;2023-05-28T07:56:33;55609.22;;;-142.13;23.00
11712;BME280;5912;51.034;6.984;2023-05-28T07:58:59;55635.25;;;-142.13;23.40
11712;BME280;5912;51.034;6.984;2023-05-28T08:01:24;55623.22;;;-142.13;23.55
11712;BME280;5912;51.034;6.984;2023-05-28T08:03:50;55611.22;;;-142.13;23.68
11712;BME280;5912;51.034;6.984;2023-05-28T08:06:19;55607.19;;;-142.13;23.45
11712;BME280;5912;51.034;6.984;2023-05-28T08:08:44;55575.16;;;-142.13;23.49
11712;BME280;5912;51.034;6.984;2023-05-28T08:11:10;55599.19;;;-142.13;23.58
11712;BME280;5912;51.034;6.984;2023-05-28T08:13:38;55569.16;;;-142.13;23.43
11712;BME280;5912;51.034;6.984;2023-05-28T08:16:04;55551.13;;;-142.13;23.01
11712;BME280;5912;51.034;6.984;2023-05-28T08:18:42;55551.13;;;-142.13;22.54
11712;BME280;5912;51.034;6.984;2023-05-28T08:21:07;55559.13;;;-142.13;22.49
11712;BME280;5912;51.034;6.984;2023-05-28T08:23:33;55555.13;;;-142.13;22.87
11712;BME280;5912;51.034;6.984;2023-05-28T08:26:03;55531.09;;;-142.13;22.77
11712;BME280;5912;51.034;6.984;2023-05-28T08:28:29;55543.13;;;-142.13;22.60
11712;BME280;5912;51.034;6.984;2023-05-28T08:30:55;55535.09;;;-142.13;22.74
11712;BME280;5912;51.034;6.984;2023-05-28T08:33:20;55539.09;;;-142.13;22.50
11712;BME280;5912;51.034;6.984;2023-05-28T08:35:46;55547.13;;;-142.13;22.29
11712;BME280;5912;51.034;6.984;2023-05-28T08:38:11;55543.13;;;-142.13;22.17
11712;BME280;5912;51.034;6.984;2023-05-28T08:40:39;55539.09;;;-142.13;22.64
11712;BME280;5912;51.034;6.984;2023-05-28T08:43:08;55553.13;;;-142.13;22.61
11712;BME280;5912;51.034;6.984;2023-05-28T08:45:34;55539.09;;;-142.13;22.44
11712;BME280;5912;51.034;6.984;2023-05-28T08:48:00;55543.13;;;-142.13;22.42
11712;BME280;5912;51.034;6.984;2023-05-28T08:50:27;55531.09;;;-142.13;22.05
11712;BME280;5912;51.034;6.984;2023-05-28T08:52:56;55503.06;;;-142.13;22.03
11712;BME280;5912;51.034;6.984;2023-05-28T08:55:23;55523.09;;;-142.13;23.15
11712;BME280;5912;51.034;6.984;2023-05-28T08:57:48;55527.09;;;-142.13;22.54
11712;BME280;5912;51.034;6.984;2023-05-28T09:00:14;55527.09;;;-142.13;23.02
11712;BME280;5912;51.034;6.984;2023-05-28T09:02:40;55513.06;;;-142.13;22.37
11712;BME280;5912;51.034;6.984;2023-05-28T09:05:05;55525.09;;;-142.13;21.75
11712;BME280;5912;51.034;6.984;2023-05-28T09:07:31;55527.09;;;-142.13;21.50
11712;BME280;5912;51.034;6.984;2023-05-28T09:09:57;55535.09;;;-142.13;21.97
11712;BME280;5912;51.034;6.984;2023-05-28T09:12:23;55527.09;;;-142.13;21.98
11712;BME280;5912;51.034;6.984;2023-05-28T09:14:50;55531.09;;;-142.13;22.00
11712;BME280;5912;51.034;6.984;2023-05-28T09:17:17;55537.09;;;-142.13;22.05
11712;BME280;5912;51.034;6.984;2023-05-28T09:19:52;55527.09;;;-142.13;20.59
11712;BME280;5912;51.034;6.984;2023-05-28T09:22:17;55551.13;;;-142.13;20.84
11712;BME280;5912;51.034;6.984;2023-05-28T09:24:48;55559.13;;;-142.13;20.84
11712;BME280;5912;51.034;6.984;2023-05-28T09:30:26;55571.16;;;-142.13;20.94
11712;BME280;5912;51.034;6.984;2023-05-28T09:33:00;55567.16;;;-142.13;21.06
11712;BME280;5912;51.034;6.984;2023-05-28T09:35:26;55575.16;;;-142.13;20.89
11712;BME280;5912;51.034;6.984;2023-05-28T09:38:06;55695.31;;;-142.13;21.02
11712;BME280;5912;51.034;6.984;2023-05-28T09:40:40;55603.19;;;-142.13;20.72
11712;BME280;5912;51.034;6.984;2023-05-28T09:43:06;55631.25;;;-142.13;21.70
11712;BME280;5912;51.034;6.984;2023-05-28T09:45:32;55603.19;;;-142.13;21.52
11712;BME280;5912;51.034;6.984;2023-05-28T09:47:58;55611.22;;;-142.13;21.22
11712;BME280;5912;51.034;6.984;2023-05-28T09:50:24;55585.16;;;-142.13;21.87
11712;BME280;5912;51.034;6.984;2023-05-28T09:52:54;55579.16;;;-142.13;21.43
11712;BME280;5912;51.034;6.984;2023-05-28T09:55:24;55607.19;;;-142.13;20.92
11712;BME280;5912;51.034;6.984;2023-05-28T09:57:58;55587.19;;;-142.13;21.26
11712;BME280;5912;51.034;6.984;2023-05-28T10:00:30;55585.16;;;-142.13;20.82
11712;BME280;5912;51.034;6.984;2023-05-28T10:05:52;55595.19;;;-142.13;21.55
11712;BME280;5912;51.034;6.984;2023-05-28T10:08:22;55609.22;;;-142.13;21.85
11712;BME280;5912;51.034;6.984;2023-05-28T10:10:52;55605.19;;;-142.13;20.92
11712;BME280;5912;51.034;6.984;2023-05-28T10:13:17;55595.19;;;-142.13;21.33
11712;BME280;5912;51.034;6.984;2023-05-28T10:15:43;55591.19;;;-142.13;21.49
11712;BME280;5912;51.034;6.984;2023-05-28T10:18:08;55591.19;;;-142.13;21.32
11712;BME280;5912;51.034;6.984;2023-05-28T10:20:34;55613.22;;;-142.13;21.54
11712;BME280;5912;51.034;6.984;2023-05-28T10:23:00;55609.22;;;-142.13;21.54
11712;BME280;5912;51.034;6.984;2023-05-28T10:25:25;55595.19;;;-142.13;21.19
11712;BME280;5912;51.034;6.984;2023-05-28T10:27:57;55579.16;;;-142.13;21.31
11712;BME280;5912;51.034;6.984;2023-05-28T10:30:30;55629.22;;;-142.13;21.27
11712;BME280;5912;51.034;6.984;2023-05-28T10:32:57;55585.16;;;-142.13;20.96
11712;BME280;5912;51.034;6.984;2023-05-28T10:35:22;55561.13;;;-142.13;20.87
11712;BME280;5912;51.034;6.984;2023-05-28T10:37:47;55565.16;;;-142.13;20.94
11712;BME280;5912;51.034;6.984;2023-05-28T10:40:22;55551.13;;;-142.13;20.72
11712;BME280;5912;51.034;6.984;2023-05-28T10:42:48;55567.16;;;-142.13;21.11
11712;BME280;5912;51.034;6.984;2023-05-28T10:45:13;55583.16;;;-142.13;20.82
11712;BME280;5912;51.034;6.984;2023-05-28T10:47:40;55533.09;;;-142.13;20.84
11712;BME280;5912;51.034;6.984;2023-05-28T10:52:41;55551.13;;;-142.13;20.19
11712;BME280;5912;51.034;6.984;2023-05-28T10:55:09;55555.13;;;-142.13;20.41
11712;BME280;5912;51.034;6.984;2023-05-28T10:57:47;55689.31;;;-142.13;20.45
11712;BME280;5912;51.034;6.984;2023-05-28T11:00:22;55549.13;;;-142.13;20.30
11712;BME280;5912;51.034;6.984;2023-05-28T11:02:51;55567.16;;;-142.13;20.25
11712;BME280;5912;51.034;6.984;2023-05-28T11:05:16;55567.16;;;-142.13;20.64
11712;BME280;5912;51.034;6.984;2023-05-28T11:07:42;55561.13;;;-142.13;20.84
11712;BME280;5912;51.034;6.984;2023-05-28T11:10:12;55571.16;;;-142.13;20.99
11712;BME280;5912;51.034;6.984;2023-05-28T11:12:40;55571.16;;;-142.13;20.08
11712;BME280;5912;51.034;6.984;2023-05-28T11:15:07;55545.13;;;-142.13;20.28
11712;BME280;5912;51.034;6.984;2023-05-28T11:17:40;55543.13;;;-142.13;20.45
11712;BME280;5912;51.034;6.984;2023-05-28T11:20:19;55535.09;;;-142.13;19.78
11712;BME280;5912;51.034;6.984;2023-05-28T11:22:46;55511.06;;;-142.13;19.83
11712;BME280;5912;51.034;6.984;2023-05-28T11:25:11;55553.13;;;-142.13;19.83
11712;BME280;5912;51.034;6.984;2023-05-28T11:27:38;55559.13;;;-142.13;20.05
11712;BME280;5912;51.034;6.984;2023-05-28T11:30:15;55541.09;;;-142.13;19.98
11712;BME280;5912;51.034;6.984;2023-05-28T11:32:42;55543.13;;;-142.13;19.96
11712;BME280;5912;51.034;6.984;2023-05-28T11:35:12;55531.09;;;-142.13;19.62
11712;BME280;5912;51.034;6.984;2023-05-28T11:37:38;55539.09;;;-142.13;19.46
11712;BME280;5912;51.034;6.984;2023-05-28T11:40:06;55535.09;;;-142.13;19.46
11712;BME280;5912;51.034;6.984;2023-05-28T11:42:35;55529.09;;;-142.13;19.64
11712;BME280;5912;51.034;6.984;2023-05-28T11:45:00;55531.09;;;-142.13;19.63
11712;BME280;5912;51.034;6.984;2023-05-28T11:47:26;55541.09;;;-142.13;19.56
11712;BME280;5912;51.034;6.984;2023-05-28T11:49:51;55535.09;;;-142.13;19.53
11712;BME280;5912;51.034;6.984;2023-05-28T11:52:19;55523.09;;;-142.13;19.66
11712;BME280;5912;51.034;6.984;2023-05-28T11:54:46;55499.06;;;-142.13;19.61
11712;BME280;5912;51.034;6.984;2023-05-28T11:57:22;55487.03;;;-142.13;19.61
11712;BME280;5912;51.034;6.984;2023-05-28T12:00:05;55491.03;;;-142.13;19.83
11712;BME280;5912;51.034;6.984;2023-05-28T12:02:51;55483.03;;;-142.13;19.36
11712;BME280;5912;51.034;6.984;2023-05-28T12:05:18;55491.03;;;-142.13;19.24
11712;BME280;5912;51.034;6.984;2023-05-28T12:07:46;55479.03;;;-142.13;19.63
11712;BME280;5912;51.034;6.984;2023-05-28T12:10:14;55483.03;;;-142.13;19.37
11712;BME280;5912;51.034;6.984;2023-05-28T12:12:43;55471.00;;;-142.13;19.32
11712;BME280;5912;51.034;6.984;2023-05-28T12:15:10;55499.06;;;-142.13;19.37
11712;BME280;5912;51.034;6.984;2023-05-28T12:17:36;55515.06;;;-142.13;19.50
11712;BME280;5912;51.034;6.984;2023-05-28T12:22:42;55507.06;;;-142.13;19.93
11712;BME280;5912;51.034;6.984;2023-05-28T12:25:08;55541.09;;;-142.13;19.61
11712;BME280;5912;51.034;6.984;2023-05-28T12:27:35;55507.06;;;-142.13;20.08
11712;BME280;5912;51.034;6.984;2023-05-28T12:30:01;55519.09;;;-142.13;19.72
11712;BME280;5912;51.034;6.984;2023-05-28T12:32:26;55515.06;;;-142.13;19.76
11712;BME280;5912;51.034;6.984;2023-05-28T12:34:52;55539.09;;;-142.13;19.76
11712;BME280;5912;51.034;6.984;2023-05-28T12:37:24;55503.06;;;-142.13;19.74
11712;BME280;5912;51.034;6.984;2023-05-28T12:39:50;55511.06;;;-142.13;19.76
11712;BME280;5912;51.034;6.984;2023-05-28T12:42:16;55489.03;;;-142.13;20.05
11712;BME280;5912;51.034;6.984;2023-05-28T12:44:41;55475.03;;;-142.13;20.27
11712;BME280;5912;51.034;6.984;2023-05-28T12:47:06;55491.03;;;-142.13;19.98
11712;BME280;5912;51.034;6.984;2023-05-28T12:49:32;55483.03;;;-142.13;19.89
11712;BME280;5912;51.034;6.984;2023-05-28T12:51:57;55523.09;;;-142.13;19.91
11712;BME280;5912;51.034;6.984;2023-05-28T12:54:23;55511.06;;;-142.13;20.03
11712;BME280;5912;51.034;6.984;2023-05-28T12:56:48;55519.09;;;-142.13;19.76
11712;BME280;5912;51.034;6.984;2023-05-28T12:59:24;55507.06;;;-142.13;19.79